• Join FlightAware (Why Join?)
  • Login
  • US Flag 
Gobble Gobble! 
08:18AM EST


 

Airport Tracker/Info


-or-


 

Live Flight TrackerFlight Track Log ✈ UCA4838 ✈ 20-May-2013 ✈ KALB - KEWR

Flight Track Log - Related Links

Times and Time Zones

All times are in EDT time to prevent confusion due to time zone crossing. See the UCA4838 flight status page for this flight to view local times or setup timezone preferences in your user account.

Time Position Orientation Groundspeed Altitude Reporting Facility
EDT Latitude Longitude Course Direction KTS MPH feet Rate Location/Type
12:49PM 42.7297 -73.8081 192° South 132 152 1,100  Level Boston Center
12:49PM 42.7025 -73.8161 192° South 145 167 2,000 1,320 Climbing Boston Center
12:50PM 42.6689 -73.8436 211° Southwest 173 199 3,300 1,200 Climbing Boston Center
12:51PM 42.6247 -73.8792 211° Southwest 186 214 4,400 1,200 Climbing Boston Center
12:52PM 42.5806 -73.9147 211° Southwest 194 223 5,600 1,260 Climbing Boston Center
12:54PM 42.5236 -73.9558 208° Southwest 189 217 7,200 1,140 Climbing Boston Center
12:54PM 42.4856 -73.9914 215° Southwest 196 226 8,100 1,140 Climbing Boston Center
12:55PM 42.4308 -74.0322 209° Southwest 208 239 9,400 1,080 Climbing Boston Center
12:56PM 42.3972 -74.0567 208° Southwest 231 266 10,000 300 Climbing Boston Center
12:57PM 42.3467 -74.0947 209° Southwest 237 273 10,000  Level Boston Center
12:58PM 42.2814 -74.1461 210° Southwest 243 280 10,000  Level Boston Center
12:59PM 42.2222 -74.1950 211° Southwest 253 291 10,000 -300 Level Boston Center
01:01PM 42.0914 -74.2867 207° Southwest 268 308 9,200 -480 Descending Boston Center
01:02PM 42.0261 -74.3350 209° Southwest 273 314 8,600 -660 Descending Boston Center
01:03PM 41.9564 -74.3858 208° Southwest 278 320 8,000 -300 Descending Boston Center
01:04PM 41.8911 -74.4314 207° Southwest 278 320 8,000  Level Boston Center
01:05PM 41.8275 -74.4794 209° Southwest 272 313 8,000  Level Boston Center
01:06PM 41.7728 -74.5194 209° Southwest 272 313 8,000  Level Boston Center
01:07PM 41.6953 -74.5364 189° South 262 302 8,000 -360 Level Boston Center
01:08PM 41.6283 -74.5508 189° South 262 302 7,300 -960 Descending Boston Center
01:09PM 41.5467 -74.5675 189° South 268 308 6,100 -660 Descending Boston Center
01:10PM 41.4819 -74.5792 188° South 274 315 6,000 -60 Descending Boston Center
01:12PM 41.3667 -74.6167 194° South 255 293 6,000 -180 Level New York TRACON
01:13PM 41.3000 -74.6333 191° South 248 285 5,600 -540 Descending New York TRACON
01:14PM 41.2333 -74.6167 169° South 242 278 5,000 -300 Descending New York TRACON
01:15PM 41.1667 -74.5667 151° Southeast 239 275 5,000  Level New York TRACON
01:16PM 41.1167 -74.5000 135° Southeast 248 285 5,000  Level New York TRACON
01:17PM 41.0833 -74.4333 124° Southeast 255 293 5,000  Level New York TRACON
01:18PM 41.0333 -74.3667 135° Southeast 251 289 5,000  Level New York TRACON
01:19PM 40.9833 -74.2833 128° Southeast 233 268 5,000 -60 Level New York TRACON
01:20PM 40.9500 -74.2333 131° Southeast 209 241 4,900 -540 Descending New York TRACON
01:21PM 40.9333 -74.1500 105° East 205 236 4,000 -600 Descending New York TRACON
01:22PM 40.9333 -74.0833 90° East 197 227 3,700 -540 Descending New York TRACON
01:23PM 40.9000 -74.0333 131° Southeast 201 231 3,000 -420 Descending New York TRACON
01:24PM 40.8667 -74.0500 201° Southwest 179 206 3,000 -240 Level New York TRACON
01:25PM 40.8167 -74.0833 207° Southwest 182 209 2,600 -720 Descending New York TRACON
01:26PM 40.7667 -74.1167 207° Southwest 179 206 1,600 -960 Descending New York TRACON
01:27PM 40.7333 -74.1333 201° Southwest 147 169 700 -900 Descending New York TRACON
01:29PM 40.6833 -74.1667 210° Southwest  Level FlightAware Approximate